Castaert Cam Meer informatie Castaert Cam


puppycam Meer informatie puppycam


Bezoek onze andere website:


U vindt ons ook hier:

Het Weer Aktueel

European Weather Network

Weather Underground

WeatherlinkIP

HAMweather, WeatherForYou, PWS Weather



Het weer levert geen direct gevaar op.    Er zijn geen waarschuwingen afgegeven.

METAR rapporten vliegvelden

   
EHGR - Tilburg
Gewijzigd: 21-08-2018 15:25
Bewolking  
Bewolking  
   Wind: NW 7.4 km/h
Wind: NW 7.4 km/h
Temperatuur: 25°C
Dauwpunt: 15°C
Vochtigheid: 54%
Barometer: 1019 mb
Bewolking: Bewolking
Zicht: meer dan 10 km
Bewolking: Gedeeltelijk bewolkt 1249.7 m,
Grotendeels bewolkt 1432.6 m,
Bewolking 2316.5 m
EHGR 211325Z AUTO 32004KT 240V350 9999 SCT041 BKN047 OVC076 25/15 Q1019 BLU 20003KT 9999 SCT038 SCT090
EHEH - Eindhoven
Gewijzigd: 21-08-2018 15:25
Bewolking  
Bewolking  
   Wind: varieert 7.4 km/h
Wind: varieert 7.4 km/h
Temperatuur: 26°C
Dauwpunt: 14°C
Vochtigheid: 48%
Barometer: 1019 mb
Bewolking: Bewolking
Zicht: meer dan 10 km
Bewolking: Grotendeels bewolkt 1950.7 m,
Bewolking 2133.6 m
EHEH 211325Z AUTO VRB04KT 9999 BKN064/// OVC070/// 26/14 Q1019 BLU VRB03KT 9999 FEW045 SCT070
EBBL - Olmen
Gewijzigd: 21-08-2018 15:25
Gedeeltelijk bewolkt  
Gedeeltelijk bewolkt  
   Wind: Noorden 5.6 km/h
Wind: Noorden 5.6 km/h
Temperatuur: 26°C
Dauwpunt: 15°C
Vochtigheid: 51%
Barometer: 1020 mb
Bewolking: Gedeeltelijk bewolkt
Zicht: meer dan 10 km
Bewolking: Gedeeltelijk bewolkt 1219.2 m
EBBL 211325Z 01003KT 9999 SCT040 26/15 Q1020 BLU BLU
EDSB - Lachen
Gewijzigd: 21-08-2018 15:20
Helder  
Helder  
   Wind: NNW 11.1 km/h
Wind: NNW 11.1 km/h
Temperatuur: 30°C
Dauwpunt: 14°C
Vochtigheid: 38%
Barometer: 1018 mb
Zicht: meer dan 10 km
Bewolking: Helder
EDSB 211320Z 34006KT 300V020 CAVOK 30/14 Q1018
  

Script ontwikkeld door  Saratoga-weather.org Aangepast voor de template door  Weerstation Leuven